Time;durP1;ratioP1;P1;durP2;ratioP2;P2;SDS_P1;SDS_P2;PMS_P1;PMS_P2;Temp;Humidity;BMP_temperature;BMP_pressure;BME280_temperature;BME280_humidity;BME280_pressure;Samples;Min_cycle;Max_cycle;Signal;HPM_P1;HPM_P2
2022/08/07 00:01:05;;;;;;;0.63;0.57;;;;;;;;;;5015507;28;20104;-87
2022/08/07 00:04:08;;;;;;;1.88;0.75;;;;;;;;;;5018068;28;20052;-86
2022/08/07 00:06:41;;;;;;;2.33;0.70;;;;;;;;;;5015771;28;20057;-86
2022/08/07 00:09:18;;;;;;;1.88;1.05;;;;;;;;;;5016752;28;20134;-87
2022/08/07 00:11:49;;;;;;;3.97;1.02;;;;;;;;;;5016377;28;20104;-87
2022/08/07 00:14:25;;;;;;;0.98;0.98;;;;;;;;;;5015818;28;20567;-87
2022/08/07 00:16:57;;;;;;;2.15;0.85;;;;;;;;;;5015308;28;20146;-87
2022/08/07 00:19:24;;;;;;;1.50;0.95;;;;;;;;;;5015289;28;20108;-87
2022/08/07 00:22:11;;;;;;;0.90;0.90;;;;;;;;;;5015371;28;20041;-86
2022/08/07 00:24:50;;;;;;;1.13;0.70;;;;;;;;;;5016445;28;20046;-86
2022/08/07 00:27:18;;;;;;;2.05;0.80;;;;;;;;;;5016760;28;20084;-86
2022/08/07 00:29:48;;;;;;;1.27;0.60;;;;;;;;;;5016789;28;20053;-87
2022/08/07 00:32:16;;;;;;;2.90;1.05;;;;;;;;;;5016096;28;20053;-87
2022/08/07 00:34:54;;;;;;;3.97;0.93;;;;;;;;;;5015051;28;20053;-87
2022/08/07 00:37:21;;;;;;;1.38;0.70;;;;;;;;;;5014923;28;20092;-87
2022/08/07 00:39:48;;;;;;;0.85;0.75;;;;;;;;;;5016213;28;20144;-87
2022/08/07 00:42:21;;;;;;;1.55;0.77;;;;;;;;;;5015860;28;20050;-86
2022/08/07 00:44:55;;;;;;;2.88;0.82;;;;;;;;;;5014795;28;20046;-86
2022/08/07 00:47:22;;;;;;;0.80;0.70;;;;;;;;;;5014681;28;20483;-87
2022/08/07 00:50:09;;;;;;;2.03;0.80;;;;;;;;;;5015465;28;20046;-86
2022/08/07 00:52:56;;;;;;;1.25;0.85;;;;;;;;;;5016235;28;20054;-87
2022/08/07 00:55:24;;;;;;;1.38;0.82;;;;;;;;;;5017427;28;20042;-86
2022/08/07 00:58:11;;;;;;;1.95;0.70;;;;;;;;;;5018789;28;20049;-86
2022/08/07 01:00:39;;;;;;;1.27;0.80;;;;;;;;;;5014220;28;20050;-86
2022/08/07 01:03:20;;;;;;;1.95;1.13;;;;;;;;;;5014286;28;20053;-87
2022/08/07 01:06:08;;;;;;;1.05;0.70;;;;;;;;;;5015706;28;20064;-86
2022/08/07 01:08:35;;;;;;;0.85;0.70;;;;;;;;;;5014404;28;20525;-86
2022/08/07 01:11:09;;;;;;;3.42;0.90;;;;;;;;;;5015887;28;20454;-86
2022/08/07 01:13:56;;;;;;;2.28;0.70;;;;;;;;;;5014349;28;20797;-86
2022/08/07 01:16:23;;;;;;;3.30;1.15;;;;;;;;;;5014672;28;20081;-86
2022/08/07 01:18:56;;;;;;;3.27;1.10;;;;;;;;;;5015151;28;20096;-86
2022/08/07 01:21:25;;;;;;;2.75;0.90;;;;;;;;;;5014834;28;20313;-86
2022/08/07 01:23:54;;;;;;;0.77;0.77;;;;;;;;;;5016195;28;20046;-87
2022/08/07 01:26:22;;;;;;;1.15;0.77;;;;;;;;;;5014688;28;20077;-86
2022/08/07 01:28:52;;;;;;;0.70;0.70;;;;;;;;;;5014517;28;20578;-87
2022/08/07 01:31:20;;;;;;;2.15;0.80;;;;;;;;;;5015823;28;20156;-86
2022/08/07 01:33:49;;;;;;;0.70;0.70;;;;;;;;;;5015374;28;20050;-87
2022/08/07 01:36:27;;;;;;;3.30;0.73;;;;;;;;;;5014730;28;20078;-87
2022/08/07 01:39:00;;;;;;;0.75;0.75;;;;;;;;;;5014752;28;20473;-86
2022/08/07 01:41:35;;;;;;;1.40;0.70;;;;;;;;;;5014786;28;20054;-87
2022/08/07 01:44:04;;;;;;;0.70;0.70;;;;;;;;;;5014322;28;20505;-86
2022/08/07 01:46:31;;;;;;;3.33;1.00;;;;;;;;;;5013813;28;20092;-86
2022/08/07 01:48:59;;;;;;;1.23;0.90;;;;;;;;;;5014314;28;20050;-87
2022/08/07 01:51:26;;;;;;;0.90;0.90;;;;;;;;;;5014250;28;20050;-86
2022/08/07 01:54:14;;;;;;;2.85;0.95;;;;;;;;;;5014165;28;20140;-87
2022/08/07 01:57:13;;;;;;;1.73;1.20;;;;;;;;;;5015078;28;20057;-86
2022/08/07 02:00:01;;;;;;;1.70;0.70;;;;;;;;;;5013233;28;20054;-87
2022/08/07 02:02:41;;;;;;;2.67;1.30;;;;;;;;;;5013367;28;20132;-86
2022/08/07 02:05:42;;;;;;;3.47;1.10;;;;;;;;;;5014369;28;20050;-86
2022/08/07 02:08:25;;;;;;;0.82;0.82;;;;;;;;;;5014419;28;20053;-87
2022/08/07 02:10:55;;;;;;;1.13;1.02;;;;;;;;;;5014590;28;20089;-87
2022/08/07 02:13:25;;;;;;;0.98;0.98;;;;;;;;;;5013942;28;20054;-87
2022/08/07 02:16:14;;;;;;;1.85;1.20;;;;;;;;;;5015309;28;20052;-86
2022/08/07 02:18:42;;;;;;;1.95;0.90;;;;;;;;;;5013420;28;20069;-87
2022/08/07 02:21:14;;;;;;;2.25;0.95;;;;;;;;;;5013362;28;20050;-86
2022/08/07 02:23:43;;;;;;;1.77;1.00;;;;;;;;;;5013224;28;20042;-86
2022/08/07 02:26:11;;;;;;;2.47;0.90;;;;;;;;;;5014722;28;20054;-86
2022/08/07 02:28:58;;;;;;;2.70;1.10;;;;;;;;;;5014641;28;20042;-86
2022/08/07 02:31:27;;;;;;;2.45;1.05;;;;;;;;;;5013097;28;20061;-87
2022/08/07 02:33:56;;;;;;;1.15;1.15;;;;;;;;;;5013419;28;20085;-86
2022/08/07 02:36:30;;;;;;;1.50;1.10;;;;;;;;;;5013249;28;20482;-87
2022/08/07 02:39:01;;;;;;;4.18;1.40;;;;;;;;;;5013231;28;20049;-86
2022/08/07 02:41:43;;;;;;;1.23;1.10;;;;;;;;;;5013334;28;20046;-87
2022/08/07 02:44:20;;;;;;;2.05;1.02;;;;;;;;;;5013967;28;20042;-86
2022/08/07 02:46:49;;;;;;;1.15;1.05;;;;;;;;;;5013239;28;20487;-87
2022/08/07 02:49:18;;;;;;;3.50;1.38;;;;;;;;;;5013480;28;20046;-86
2022/08/07 02:52:08;;;;;;;2.20;1.17;;;;;;;;;;5013095;28;20058;-87
2022/08/07 02:54:40;;;;;;;3.55;1.45;;;;;;;;;;5013448;28;20054;-87
2022/08/07 02:57:12;;;;;;;3.42;1.40;;;;;;;;;;5013447;28;20045;-86
2022/08/07 02:59:44;;;;;;;1.48;1.30;;;;;;;;;;5012990;28;20049;-86
2022/08/07 03:02:21;;;;;;;1.40;1.30;;;;;;;;;;5013049;28;20076;-86
2022/08/07 03:04:50;;;;;;;2.38;1.40;;;;;;;;;;5012631;28;20061;-86
2022/08/07 03:07:17;;;;;;;1.20;1.20;;;;;;;;;;5012967;28;20052;-87
2022/08/07 03:09:48;;;;;;;1.90;1.20;;;;;;;;;;5012777;28;20073;-86
2022/08/07 03:12:18;;;;;;;2.47;1.45;;;;;;;;;;5014323;28;20104;-86
2022/08/07 03:14:57;;;;;;;1.73;1.63;;;;;;;;;;5013590;28;20125;-86
2022/08/07 03:17:29;;;;;;;1.70;1.05;;;;;;;;;;5012175;28;20053;-87
2022/08/07 03:20:02;;;;;;;1.10;1.10;;;;;;;;;;5013313;28;20057;-87
2022/08/07 03:22:29;;;;;;;2.80;1.63;;;;;;;;;;5011847;28;20068;-87
2022/08/07 03:24:58;;;;;;;1.40;1.30;;;;;;;;;;5012289;28;20046;-87
2022/08/07 03:27:26;;;;;;;2.08;1.40;;;;;;;;;;5013093;28;20081;-87
2022/08/07 03:29:57;;;;;;;1.70;1.60;;;;;;;;;;5013343;28;20077;-87
2022/08/07 03:32:28;;;;;;;1.40;1.30;;;;;;;;;;5012909;28;20073;-86
2022/08/07 03:34:57;;;;;;;3.13;1.50;;;;;;;;;;5012291;28;20089;-87
2022/08/07 03:37:45;;;;;;;2.05;1.23;;;;;;;;;;5011986;28;20058;-87
2022/08/07 03:40:20;;;;;;;1.40;1.30;;;;;;;;;;5011606;28;20081;-87
2022/08/07 03:42:49;;;;;;;1.98;1.25;;;;;;;;;;5011693;28;20120;-87
2022/08/07 03:45:17;;;;;;;2.55;1.30;;;;;;;;;;5011901;28;20065;-86
2022/08/07 03:47:57;;;;;;;2.47;1.30;;;;;;;;;;5011744;28;20499;-86
2022/08/07 03:50:25;;;;;;;4.20;3.70;;;;;;;;;;5013032;28;20068;-87
2022/08/07 03:52:56;;;;;;;9.05;5.45;;;;;;;;;;5012055;28;20414;-87
2022/08/07 03:55:24;;;;;;;4.97;3.70;;;;;;;;;;5013045;28;20054;-86
2022/08/07 03:58:11;;;;;;;4.40;3.05;;;;;;;;;;5012566;28;20054;-86
2022/08/07 04:00:59;;;;;;;2.53;2.40;;;;;;;;;;5012808;28;20487;-86
2022/08/07 04:03:27;;;;;;;2.33;2.22;;;;;;;;;;5012237;28;20470;-86
2022/08/07 04:06:14;;;;;;;2.33;2.22;;;;;;;;;;5012338;28;20052;-86
2022/08/07 04:09:02;;;;;;;1.90;1.80;;;;;;;;;;5013691;28;20060;-86
2022/08/07 04:11:31;;;;;;;1.85;1.75;;;;;;;;;;5012586;28;20046;-87
2022/08/07 04:14:19;;;;;;;6.00;2.05;;;;;;;;;;5012902;28;20053;-87
2022/08/07 04:17:06;;;;;;;5.22;1.40;;;;;;;;;;5012817;28;20054;-86
2022/08/07 04:19:53;;;;;;;4.72;1.45;;;;;;;;;;5014022;28;20060;-87
2022/08/07 04:22:23;;;;;;;1.30;1.30;;;;;;;;;;5013670;28;20100;-87
2022/08/07 04:24:56;;;;;;;2.60;1.80;;;;;;;;;;5013115;28;20108;-87
2022/08/07 04:27:24;;;;;;;1.70;1.70;;;;;;;;;;5016186;28;20133;-86
2022/08/07 04:29:52;;;;;;;2.08;1.98;;;;;;;;;;5016324;28;20046;-87
2022/08/07 04:32:28;;;;;;;1.48;1.38;;;;;;;;;;5017231;28;20052;-86
2022/08/07 04:35:01;;;;;;;3.15;1.30;;;;;;;;;;5017332;28;20053;-86
2022/08/07 04:37:31;;;;;;;1.95;1.55;;;;;;;;;;5017726;28;20056;-87
2022/08/07 04:40:19;;;;;;;1.55;1.55;;;;;;;;;;5017035;28;20527;-86
2022/08/07 04:42:46;;;;;;;2.58;1.60;;;;;;;;;;5016643;28;20077;-87
2022/08/07 04:45:18;;;;;;;1.55;1.45;;;;;;;;;;5017438;28;20046;-86
2022/08/07 04:48:12;;;;;;;2.22;1.50;;;;;;;;;;5018198;28;20137;-86
2022/08/07 04:50:58;;;;;;;1.67;1.20;;;;;;;;;;5019055;28;20050;-86
2022/08/07 04:53:35;;;;;;;5.47;1.50;;;;;;;;;;5016058;28;20050;-87
2022/08/07 04:56:39;;;;;;;1.73;1.30;;;;;;;;;;5016020;28;20075;-86
2022/08/07 04:59:30;;;;;;;3.08;2.00;;;;;;;;;;5016033;28;20060;-86
2022/08/07 05:02:21;;;;;;;1.30;1.20;;;;;;;;;;5015875;28;20069;-86
2022/08/07 05:04:56;;;;;;;1.92;1.15;;;;;;;;;;5016114;28;20085;-86
2022/08/07 05:07:31;;;;;;;2.63;0.90;;;;;;;;;;5017264;28;20057;-86
2022/08/07 05:10:11;;;;;;;0.93;0.80;;;;;;;;;;5014898;28;20045;-86
2022/08/07 05:12:43;;;;;;;4.82;1.25;;;;;;;;;;5015261;28;20050;-86
2022/08/07 05:15:23;;;;;;;2.42;0.88;;;;;;;;;;5015423;28;20061;-87
2022/08/07 05:17:54;;;;;;;0.80;0.80;;;;;;;;;;5015234;28;20050;-86
2022/08/07 05:20:26;;;;;;;1.60;0.93;;;;;;;;;;5015431;28;20050;-86
2022/08/07 05:22:59;;;;;;;2.35;0.98;;;;;;;;;;5014886;28;20483;-86
2022/08/07 05:25:28;;;;;;;1.80;1.15;;;;;;;;;;5015553;28;20045;-86
2022/08/07 05:28:16;;;;;;;1.77;0.98;;;;;;;;;;5015230;28;20057;-87
2022/08/07 05:30:53;;;;;;;1.05;0.85;;;;;;;;;;5016180;28;20411;-86
2022/08/07 05:33:23;;;;;;;1.88;0.80;;;;;;;;;;5014537;28;20046;-86
2022/08/07 05:35:52;;;;;;;0.60;0.60;;;;;;;;;;5015507;28;20510;-86
2022/08/07 05:38:21;;;;;;;1.48;0.45;;;;;;;;;;5014074;28;20073;-85
2022/08/07 05:41:09;;;;;;;0.55;0.55;;;;;;;;;;5015292;28;20050;-86
2022/08/07 05:43:47;;;;;;;0.68;0.40;;;;;;;;;;5014785;28;20052;-86
2022/08/07 05:46:35;;;;;;;1.10;0.68;;;;;;;;;;5014524;28;20041;-87
2022/08/07 05:49:04;;;;;;;1.35;0.47;;;;;;;;;;5013643;28;20526;-86
2022/08/07 05:51:38;;;;;;;3.00;0.55;;;;;;;;;;5013467;28;20042;-86
2022/08/07 05:54:06;;;;;;;2.13;0.80;;;;;;;;;;5013805;28;20504;-86
2022/08/07 05:56:54;;;;;;;1.23;0.55;;;;;;;;;;5013731;28;20052;-87
2022/08/07 05:59:23;;;;;;;2.45;0.70;;;;;;;;;;5014403;28;20060;-86
2022/08/07 06:01:50;;;;;;;3.30;1.40;;;;;;;;;;5013506;28;20050;-85
2022/08/07 06:04:20;;;;;;;4.47;1.05;;;;;;;;;;5013976;28;20056;-86
2022/08/07 06:06:55;;;;;;;4.40;0.77;;;;;;;;;;5027327;28;20053;-86
2022/08/07 06:09:31;;;;;;;2.13;1.02;;;;;;;;;;5016454;28;20046;-87
2022/08/07 06:12:18;;;;;;;5.68;0.88;;;;;;;;;;5013582;28;20048;-86
2022/08/07 06:14:54;;;;;;;1.10;0.63;;;;;;;;;;5012588;28;20171;-86
2022/08/07 06:17:30;;;;;;;2.28;0.50;;;;;;;;;;5013386;28;20057;-86
2022/08/07 06:20:04;;;;;;;1.10;0.50;;;;;;;;;;5014129;28;20518;-87
2022/08/07 06:22:32;;;;;;;10.43;1.75;;;;;;;;;;5012831;28;20515;-86
2022/08/07 06:25:06;;;;;;;14.40;1.75;;;;;;;;;;5014169;28;20042;-87
2022/08/07 06:27:36;;;;;;;20.38;2.60;;;;;;;;;;5012813;28;20050;-86
2022/08/07 06:30:23;;;;;;;19.33;1.88;;;;;;;;;;5013140;28;20060;-86
2022/08/07 06:33:03;;;;;;;16.52;2.10;;;;;;;;;;5013001;28;20080;-88
2022/08/07 06:35:42;;;;;;;21.17;1.83;;;;;;;;;;5012153;28;20107;-86
2022/08/07 06:38:15;;;;;;;3.95;1.15;;;;;;;;;;5012475;28;20050;-86
2022/08/07 06:40:48;;;;;;;13.82;2.05;;;;;;;;;;5012674;28;20152;-86
2022/08/07 06:43:18;;;;;;;14.15;1.90;;;;;;;;;;5012317;28;20515;-86
2022/08/07 06:45:48;;;;;;;7.18;1.30;;;;;;;;;;5013569;28;20042;-85
2022/08/07 06:48:15;;;;;;;13.68;1.90;;;;;;;;;;5013146;28;20116;-86
2022/08/07 06:50:52;;;;;;;10.57;1.83;;;;;;;;;;5012168;28;20046;-86
2022/08/07 06:53:21;;;;;;;11.48;1.60;;;;;;;;;;5012301;28;20052;-87
2022/08/07 06:56:09;;;;;;;6.80;1.48;;;;;;;;;;5013394;28;20517;-88
2022/08/07 06:58:42;;;;;;;8.85;2.15;;;;;;;;;;5012039;28;20411;-86
2022/08/07 07:01:30;;;;;;;18.60;1.55;;;;;;;;;;5012236;28;20374;-84
2022/08/07 07:04:10;;;;;;;11.43;1.45;;;;;;;;;;5012475;28;20057;-86
2022/08/07 07:06:58;;;;;;;9.68;1.60;;;;;;;;;;5012093;28;20042;-86
2022/08/07 07:09:28;;;;;;;7.05;1.58;;;;;;;;;;5012144;28;20562;-85
2022/08/07 07:12:06;;;;;;;8.15;1.45;;;;;;;;;;5012150;28;20042;-86
2022/08/07 07:14:58;;;;;;;2.67;0.80;;;;;;;;;;5013806;28;20050;-85
2022/08/07 07:17:48;;;;;;;3.13;0.70;;;;;;;;;;5014849;28;20042;-86
2022/08/07 07:20:18;;;;;;;2.88;0.70;;;;;;;;;;5014109;28;20496;-88
2022/08/07 07:22:46;;;;;;;2.55;0.45;;;;;;;;;;5014197;28;20116;-86
2022/08/07 07:25:34;;;;;;;1.48;0.63;;;;;;;;;;5014878;28;20515;-86
2022/08/07 07:28:27;;;;;;;1.50;0.63;;;;;;;;;;5014848;28;20141;-87
2022/08/07 07:31:23;;;;;;;2.58;0.50;;;;;;;;;;5015426;28;20133;-86
2022/08/07 07:33:58;;;;;;;1.70;0.55;;;;;;;;;;5014703;28;20054;-87
2022/08/07 07:36:50;;;;;;;1.27;0.30;;;;;;;;;;5015859;28;20050;-87
2022/08/07 07:39:21;;;;;;;0.80;0.50;;;;;;;;;;5015537;28;20136;-87
2022/08/07 07:41:52;;;;;;;0.43;0.40;;;;;;;;;;5014243;28;20049;-86
2022/08/07 07:44:41;;;;;;;1.10;0.57;;;;;;;;;;5015676;28;20046;-87
2022/08/07 07:47:09;;;;;;;1.40;0.40;;;;;;;;;;5014351;28;20049;-87
2022/08/07 07:49:53;;;;;;;1.17;0.40;;;;;;;;;;5017844;28;20052;-86
2022/08/07 07:52:42;;;;;;;2.38;0.50;;;;;;;;;;5017502;28;20050;-87
2022/08/07 07:55:15;;;;;;;1.98;0.50;;;;;;;;;;5017811;28;20054;-87
2022/08/07 07:57:42;;;;;;;0.73;0.50;;;;;;;;;;5013804;28;20049;-88
2022/08/07 08:00:20;;;;;;;0.38;0.30;;;;;;;;;;5012617;28;20128;-87
2022/08/07 08:03:02;;;;;;;2.97;0.43;;;;;;;;;;5017034;28;20349;-87
2022/08/07 08:05:32;;;;;;;3.53;0.50;;;;;;;;;;5015643;28;20045;-86
2022/08/07 08:08:20;;;;;;;1.80;1.10;;;;;;;;;;5016508;28;20052;-87
2022/08/07 08:11:07;;;;;;;1.27;0.60;;;;;;;;;;5015507;28;20056;-85
2022/08/07 08:13:43;;;;;;;1.13;0.75;;;;;;;;;;5017038;28;20105;-86
2022/08/07 08:16:32;;;;;;;1.35;1.25;;;;;;;;;;5017830;28;20564;-87
2022/08/07 08:19:02;;;;;;;3.92;0.60;;;;;;;;;;5016535;28;20058;-87
2022/08/07 08:27:47;;;;;;;2.72;0.60;;;;;;;;;;5017196;28;20517;-88
2022/08/07 08:30:28;;;;;;;0.90;0.70;;;;;;;;;;5017110;28;20061;-88
2022/08/07 08:32:59;;;;;;;0.85;0.57;;;;;;;;;;5016152;28;20085;-87
2022/08/07 08:35:28;;;;;;;1.33;1.05;;;;;;;;;;5016627;28;20050;-88
2022/08/07 08:38:14;;;;;;;2.42;1.05;;;;;;;;;;5014944;28;20046;-86
2022/08/07 08:40:45;;;;;;;1.42;0.80;;;;;;;;;;5018985;28;20419;-88
2022/08/07 08:43:23;;;;;;;2.10;0.80;;;;;;;;;;5017668;28;20054;-88
2022/08/07 08:46:14;;;;;;;3.72;0.50;;;;;;;;;;5020036;28;20050;-83
2022/08/07 08:48:50;;;;;;;2.05;0.70;;;;;;;;;;5028320;28;20054;-88
2022/08/07 08:51:27;;;;;;;1.75;0.65;;;;;;;;;;5025906;28;20066;-85
2022/08/07 08:54:27;;;;;;;2.13;0.70;;;;;;;;;;5025411;28;20557;-82
2022/08/07 08:56:57;;;;;;;2.13;0.77;;;;;;;;;;5025375;28;20054;-86
2022/08/07 09:00:00;;;;;;;3.40;0.50;;;;;;;;;;5022586;28;20509;-88
2022/08/07 09:02:35;;;;;;;1.05;0.43;;;;;;;;;;5022004;28;20042;-86
2022/08/07 09:05:23;;;;;;;2.38;0.80;;;;;;;;;;5028250;28;20050;-86
2022/08/07 09:08:07;;;;;;;0.60;0.40;;;;;;;;;;5026311;28;20410;-84
2022/08/07 09:10:43;;;;;;;0.60;0.40;;;;;;;;;;5017865;28;20050;-84
2022/08/07 09:13:24;;;;;;;0.77;0.20;;;;;;;;;;5016558;28;20050;-86
2022/08/07 09:16:23;;;;;;;2.15;0.60;;;;;;;;;;5016609;28;20046;-86
2022/08/07 09:19:17;;;;;;;0.43;0.15;;;;;;;;;;5017178;28;20049;-84
2022/08/07 09:22:18;;;;;;;0.55;0.30;;;;;;;;;;5017867;28;20085;-85
2022/08/07 09:25:05;;;;;;;0.88;0.40;;;;;;;;;;5014984;28;20140;-89
2022/08/07 09:28:11;;;;;;;1.38;0.57;;;;;;;;;;5014878;28;20522;-86
2022/08/07 09:30:58;;;;;;;;;;;;;;;;;;5015383;28;20577;-84
2022/08/07 09:33:30;;;;;;;2.28;0.70;;;;;;;;;;5015556;28;19921;-85
2022/08/07 09:36:24;;;;;;;0.57;0.22;;;;;;;;;;5015618;28;20140;-84
2022/08/07 09:38:59;;;;;;;0.45;0.30;;;;;;;;;;5015198;28;20069;-86
2022/08/07 09:41:54;;;;;;;1.85;0.28;;;;;;;;;;5014994;28;20049;-87
2022/08/07 09:44:36;;;;;;;0.45;0.30;;;;;;;;;;5016482;28;20073;-84
2022/08/07 09:47:36;;;;;;;0.57;0.25;;;;;;;;;;5017241;28;20459;-86
2022/08/07 09:50:39;;;;;;;0.22;0.20;;;;;;;;;;5017132;28;20073;-85
2022/08/07 09:53:08;;;;;;;0.57;0.40;;;;;;;;;;5016410;28;20065;-85
2022/08/07 09:55:51;;;;;;;0.63;0.20;;;;;;;;;;5018544;28;20046;-85
2022/08/07 09:58:49;;;;;;;0.38;0.30;;;;;;;;;;5017258;28;20060;-86
2022/08/07 10:01:29;;;;;;;0.50;0.30;;;;;;;;;;5018233;28;20054;-86
2022/08/07 10:04:34;;;;;;;0.20;0.20;;;;;;;;;;5015693;28;20059;-84
2022/08/07 10:07:07;;;;;;;0.55;0.30;;;;;;;;;;5014138;28;20454;-84
2022/08/07 10:10:02;;;;;;;9.52;0.60;;;;;;;;;;5015715;28;20109;-84
2022/08/07 10:12:48;;;;;;;2.05;0.30;;;;;;;;;;5015510;28;20053;-86
2022/08/07 10:15:38;;;;;;;0.63;0.30;;;;;;;;;;5016275;28;20145;-85
2022/08/07 10:18:13;;;;;;;0.55;0.30;;;;;;;;;;5016342;28;20499;-84
2022/08/07 10:20:54;;;;;;;0.10;0.10;;;;;;;;;;5015554;28;20526;-85
2022/08/07 10:23:25;;;;;;;0.50;0.25;;;;;;;;;;5017076;28;20076;-84
2022/08/07 10:26:15;;;;;;;0.82;0.20;;;;;;;;;;5014540;28;20052;-86
2022/08/07 10:29:10;;;;;;;0.43;0.40;;;;;;;;;;5017118;28;20068;-88
2022/08/07 10:31:46;;;;;;;0.77;0.20;;;;;;;;;;5014361;28;20073;-88
2022/08/07 10:34:15;;;;;;;0.20;0.20;;;;;;;;;;5016302;28;20499;-89
2022/08/07 10:36:57;;;;;;;0.30;0.30;;;;;;;;;;5016813;28;20495;-89
2022/08/07 10:39:34;;;;;;;1.60;0.60;;;;;;;;;;5014468;28;20100;-87
2022/08/07 10:42:45;;;;;;;0.40;0.40;;;;;;;;;;5015656;28;20500;-87
2022/08/07 10:45:35;;;;;;;0.25;0.10;;;;;;;;;;5015228;28;20050;-87
2022/08/07 10:48:26;;;;;;;0.43;0.30;;;;;;;;;;5014089;28;20045;-89
2022/08/07 10:51:01;;;;;;;1.75;0.13;;;;;;;;;;5014459;28;20081;-87
2022/08/07 10:53:41;;;;;;;1.15;0.20;;;;;;;;;;5014758;28;20072;-88
2022/08/07 10:56:31;;;;;;;2.38;0.40;;;;;;;;;;5014836;28;20056;-86
2022/08/07 10:59:17;;;;;;;0.98;0.20;;;;;;;;;;5016020;28;20080;-89
2022/08/07 11:01:47;;;;;;;0.20;0.20;;;;;;;;;;5015042;28;20132;-88
2022/08/07 11:04:57;;;;;;;0.88;0.20;;;;;;;;;;5017393;28;20054;-86
2022/08/07 11:07:40;;;;;;;0.38;0.13;;;;;;;;;;5014746;28;20057;-89
2022/08/07 11:10:46;;;;;;;1.33;0.50;;;;;;;;;;5014435;28;20107;-87
2022/08/07 11:13:34;;;;;;;1.15;0.40;;;;;;;;;;5015561;28;20049;-86
2022/08/07 11:16:24;;;;;;;2.15;0.20;;;;;;;;;;5015203;28;20459;-87
2022/08/07 11:19:15;;;;;;;1.00;0.17;;;;;;;;;;5016764;28;20042;-87
2022/08/07 11:21:59;;;;;;;0.57;0.10;;;;;;;;;;5013676;28;20065;-87
2022/08/07 11:24:26;;;;;;;;;;;;;;;;;;5014758;28;20577;-88
2022/08/07 11:27:09;;;;;;;2.90;0.43;;;;;;;;;;5015172;28;20375;-84
2022/08/07 11:29:43;;;;;;;0.35;0.15;;;;;;;;;;5012705;28;20046;-88
2022/08/07 11:32:33;;;;;;;0.30;0.28;;;;;;;;;;5015257;28;20053;-86
2022/08/07 11:35:11;;;;;;;0.20;0.20;;;;;;;;;;5014684;28;20050;-85
2022/08/07 11:37:49;;;;;;;1.50;0.20;;;;;;;;;;5018902;28;20050;-85
2022/08/07 11:40:36;;;;;;;;;;;;;;;;;;5019195;28;20049;-87
2022/08/07 11:43:16;;;;;;;0.55;0.25;;;;;;;;;;5019633;28;20004;-88
2022/08/07 11:46:22;;;;;;;2.38;0.30;;;;;;;;;;5019582;28;20054;-88
2022/08/07 11:49:02;;;;;;;0.63;0.25;;;;;;;;;;5019012;28;20124;-89
2022/08/07 11:52:08;;;;;;;2.60;0.38;;;;;;;;;;5017821;28;20488;-86
2022/08/07 11:54:48;;;;;;;1.08;0.20;;;;;;;;;;5020458;28;20052;-84
2022/08/07 11:57:27;;;;;;;0.75;0.30;;;;;;;;;;5023794;28;20056;-86
2022/08/07 12:00:17;;;;;;;0.47;0.20;;;;;;;;;;5028850;28;20056;-84
2022/08/07 12:02:59;;;;;;;0.65;0.20;;;;;;;;;;5025305;28;20551;-84
2022/08/07 12:05:33;;;;;;;0.40;0.40;;;;;;;;;;5026294;28;20049;-84
2022/08/07 12:08:32;;;;;;;1.40;0.30;;;;;;;;;;5024450;28;20045;-86
2022/08/07 12:11:16;;;;;;;2.00;0.20;;;;;;;;;;5023886;28;20072;-84
2022/08/07 12:14:15;;;;;;;0.20;0.20;;;;;;;;;;5022393;28;20140;-84
2022/08/07 12:16:54;;;;;;;0.40;0.30;;;;;;;;;;5018033;28;20100;-84
2022/08/07 12:19:27;;;;;;;1.60;0.30;;;;;;;;;;5018716;28;20557;-83
2022/08/07 12:22:14;;;;;;;2.03;0.23;;;;;;;;;;5020299;28;20053;-83
2022/08/07 12:28:27;;;;;;;0.30;0.20;;;;;;;;;;5023268;28;20088;-86
2022/08/07 12:31:04;;;;;;;0.63;0.20;;;;;;;;;;5021831;28;20110;-85
2022/08/07 12:33:35;;;;;;;2.13;0.35;;;;;;;;;;5008261;28;20042;-85
2022/08/07 12:36:24;;;;;;;1.50;0.35;;;;;;;;;;5020952;28;20085;-84
2022/08/07 12:39:02;;;;;;;0.75;0.25;;;;;;;;;;5019183;28;20495;-86
2022/08/07 12:41:51;;;;;;;2.08;0.35;;;;;;;;;;5020461;28;20092;-85
2022/08/07 12:44:20;;;;;;;0.70;0.20;;;;;;;;;;5020825;28;20054;-85
2022/08/07 12:47:00;;;;;;;0.82;0.40;;;;;;;;;;5015826;28;20053;-84
2022/08/07 12:49:57;;;;;;;2.85;0.30;;;;;;;;;;5020593;28;20128;-83
2022/08/07 12:52:46;;;;;;;1.37;0.30;;;;;;;;;;5019452;28;20056;-85
2022/08/07 12:55:24;;;;;;;0.80;0.30;;;;;;;;;;5024514;28;20041;-84
2022/08/07 12:58:15;;;;;;;1.60;0.20;;;;;;;;;;5019848;28;20052;-86
2022/08/07 13:00:59;;;;;;;3.25;0.20;;;;;;;;;;5020676;28;20104;-88
2022/08/07 13:03:35;;;;;;;0.82;0.20;;;;;;;;;;5018101;28;20049;-87
2022/08/07 13:06:32;;;;;;;4.68;0.38;;;;;;;;;;5015770;28;20112;-86
2022/08/07 13:09:06;;;;;;;0.38;0.20;;;;;;;;;;5017350;28;20046;-84
2022/08/07 13:11:59;;;;;;;1.77;0.45;;;;;;;;;;5019825;28;20085;-83
2022/08/07 13:14:43;;;;;;;0.20;0.20;;;;;;;;;;5017201;28;20050;-84
2022/08/07 13:17:22;;;;;;;1.13;0.30;;;;;;;;;;5014859;28;20105;-86
2022/08/07 13:20:11;;;;;;;2.53;0.30;;;;;;;;;;5015074;28;20054;-86
2022/08/07 13:22:45;;;;;;;0.77;0.20;;;;;;;;;;5018721;28;20045;-84
2022/08/07 13:25:26;;;;;;;0.80;0.20;;;;;;;;;;5015582;28;20130;-85
2022/08/07 13:28:03;;;;;;;0.65;0.20;;;;;;;;;;5015068;28;20141;-85
2022/08/07 13:30:42;;;;;;;0.20;0.20;;;;;;;;;;5016154;28;20059;-88
2022/08/07 13:33:27;;;;;;;0.85;0.20;;;;;;;;;;5016100;28;20053;-87
2022/08/07 13:36:27;;;;;;;0.32;0.20;;;;;;;;;;5016365;28;20109;-89
2022/08/07 13:39:15;;;;;;;2.13;0.20;;;;;;;;;;5018513;28;20046;-86
2022/08/07 13:42:03;;;;;;;0.10;0.10;;;;;;;;;;5015447;28;20056;-85
2022/08/07 13:44:33;;;;;;;1.98;0.20;;;;;;;;;;5020424;28;20137;-85
2022/08/07 13:47:04;;;;;;;0.40;0.40;;;;;;;;;;5017061;28;20053;-84
2022/08/07 13:49:37;;;;;;;3.00;0.30;;;;;;;;;;5018699;28;20125;-85
2022/08/07 13:52:26;;;;;;;0.73;0.38;;;;;;;;;;5017493;28;20111;-86
2022/08/07 13:55:29;;;;;;;0.63;0.30;;;;;;;;;;5019260;28;20052;-85
2022/08/07 14:01:07;;;;;;;0.50;0.20;;;;;;;;;;5023381;28;20046;-85
2022/08/07 14:03:39;;;;;;;0.60;0.20;;;;;;;;;;5026155;28;20100;-87
2022/08/07 14:06:30;;;;;;;;;;;;;;;;;;5020641;28;20046;-85
2022/08/07 14:08:59;;;;;;;1.48;0.20;;;;;;;;;;5022709;28;20028;-85
2022/08/07 14:11:35;;;;;;;2.58;0.20;;;;;;;;;;5017105;28;20415;-84
2022/08/07 14:14:29;;;;;;;1.02;0.30;;;;;;;;;;5023278;28;20069;-86
2022/08/07 14:17:02;;;;;;;1.10;0.30;;;;;;;;;;5024060;28;20061;-86
2022/08/07 14:20:04;;;;;;;3.95;0.28;;;;;;;;;;5020230;28;20077;-86
2022/08/07 14:22:53;;;;;;;0.60;0.10;;;;;;;;;;5024743;28;20115;-85
2022/08/07 14:25:24;;;;;;;0.38;0.20;;;;;;;;;;5017293;28;20049;-88
2022/08/07 14:27:56;;;;;;;0.38;0.38;;;;;;;;;;5015324;28;20053;-87
2022/08/07 14:30:39;;;;;;;0.88;0.20;;;;;;;;;;5013745;28;20511;-88
2022/08/07 14:33:08;;;;;;;0.30;0.20;;;;;;;;;;5015659;28;20141;-86
2022/08/07 14:35:56;;;;;;;0.90;0.22;;;;;;;;;;5015932;28;20072;-88
2022/08/07 14:38:29;;;;;;;2.65;0.30;;;;;;;;;;5014086;28;20046;-87
2022/08/07 14:41:00;;;;;;;0.85;0.40;;;;;;;;;;5014743;28;20513;-87
2022/08/07 14:43:48;;;;;;;0.40;0.10;;;;;;;;;;5015090;28;20060;-87
2022/08/07 14:46:36;;;;;;;0.47;0.20;;;;;;;;;;5014676;28;20050;-88
2022/08/07 14:49:18;;;;;;;0.65;0.30;;;;;;;;;;5014419;28;20132;-88
2022/08/07 14:52:06;;;;;;;0.43;0.20;;;;;;;;;;5014888;28;20109;-88
2022/08/07 14:54:53;;;;;;;0.15;0.10;;;;;;;;;;5015612;28;20081;-87
2022/08/07 14:57:23;;;;;;;2.00;0.60;;;;;;;;;;5014670;28;20049;-87
2022/08/07 14:59:51;;;;;;;0.15;0.10;;;;;;;;;;5015838;28;20054;-87
2022/08/07 15:02:32;;;;;;;0.45;0.40;;;;;;;;;;5013961;28;20495;-87
2022/08/07 15:05:04;;;;;;;1.30;0.20;;;;;;;;;;5014223;28;20499;-88
2022/08/07 15:07:50;;;;;;;0.57;0.20;;;;;;;;;;5013665;28;20510;-87
2022/08/07 15:10:23;;;;;;;0.73;0.30;;;;;;;;;;5013602;28;20062;-88
2022/08/07 15:13:16;;;;;;;2.28;0.30;;;;;;;;;;5015650;28;20058;-87
2022/08/07 15:15:50;;;;;;;1.90;0.30;;;;;;;;;;5014825;28;20053;-88
2022/08/07 15:18:21;;;;;;;0.30;0.30;;;;;;;;;;5013828;28;20054;-86
2022/08/07 15:21:28;;;;;;;0.47;0.40;;;;;;;;;;5020013;28;20116;-89
2022/08/07 15:24:19;;;;;;;0.32;0.10;;;;;;;;;;5016715;28;20046;-88
2022/08/07 15:27:11;;;;;;;0.22;0.15;;;;;;;;;;5018073;28;20081;-87
2022/08/07 15:29:42;;;;;;;1.17;0.30;;;;;;;;;;5020135;28;20144;-88
2022/08/07 15:32:30;;;;;;;0.30;0.20;;;;;;;;;;5020919;28;20074;-87
2022/08/07 15:35:22;;;;;;;0.90;0.25;;;;;;;;;;5018753;28;20077;-87
2022/08/07 15:38:10;;;;;;;0.17;0.17;;;;;;;;;;5018080;28;20470;-86
2022/08/07 15:40:58;;;;;;;0.40;0.20;;;;;;;;;;5015350;28;20049;-87
2022/08/07 15:43:49;;;;;;;0.40;0.40;;;;;;;;;;5013499;28;20042;-83
2022/08/07 15:46:26;;;;;;;0.40;0.40;;;;;;;;;;5013821;28;20041;-87
2022/08/07 15:49:11;;;;;;;0.90;0.30;;;;;;;;;;5013224;28;20086;-87
2022/08/07 15:51:54;;;;;;;0.98;0.30;;;;;;;;;;5015331;28;20049;-87
2022/08/07 15:54:39;;;;;;;0.30;0.20;;;;;;;;;;5014679;28;20061;-88
2022/08/07 15:57:09;;;;;;;1.30;0.30;;;;;;;;;;5014195;28;20046;-87
2022/08/07 15:59:58;;;;;;;0.63;0.20;;;;;;;;;;5015287;28;20100;-87
2022/08/07 16:02:41;;;;;;;0.55;0.20;;;;;;;;;;5017800;28;20072;-88
2022/08/07 16:05:16;;;;;;;0.85;0.30;;;;;;;;;;5017308;28;20050;-87
2022/08/07 16:07:57;;;;;;;0.30;0.30;;;;;;;;;;5016837;28;20471;-87
2022/08/07 16:10:47;;;;;;;0.60;0.32;;;;;;;;;;5013842;28;20140;-87